createdAt,value
2023-05-19T00:02:15.789Z,53.47
2023-05-19T00:04:46.846Z,53.50
2023-05-19T00:07:24.342Z,53.41
2023-05-19T00:09:55.338Z,53.59
2023-05-19T00:12:26.377Z,53.56
2023-05-19T00:14:56.941Z,53.36
2023-05-19T00:17:27.588Z,53.44
2023-05-19T00:19:57.874Z,53.65
2023-05-19T00:22:28.350Z,53.53
2023-05-19T00:25:04.241Z,53.77
2023-05-19T00:27:34.495Z,53.89
2023-05-19T00:30:04.715Z,53.74
2023-05-19T00:32:35.119Z,54.02
2023-05-19T00:35:05.712Z,53.76
2023-05-19T00:37:36.081Z,53.91
2023-05-19T00:40:08.576Z,53.75
2023-05-19T00:42:38.956Z,54.00
2023-05-19T00:45:09.872Z,54.04
2023-05-19T00:47:40.329Z,53.77
2023-05-19T00:50:11.301Z,53.79
2023-05-19T00:52:42.100Z,53.73
2023-05-19T00:55:12.770Z,53.66
2023-05-19T00:57:43.266Z,53.71
2023-05-19T01:00:14.402Z,53.82
2023-05-19T01:02:46.044Z,53.69
2023-05-19T01:05:16.646Z,53.77
2023-05-19T01:07:47.249Z,53.92
2023-05-19T01:10:17.556Z,54.00
2023-05-19T01:12:48.565Z,54.30
2023-05-19T01:15:19.209Z,54.28
2023-05-19T01:18:14.440Z,54.42
2023-05-19T01:21:03.210Z,54.44
2023-05-19T01:23:42.488Z,54.29
2023-05-19T01:26:32.317Z,54.30
2023-05-19T01:29:21.635Z,54.46
2023-05-19T01:31:53.148Z,54.45
2023-05-19T01:34:26.186Z,54.49
2023-05-19T01:36:58.732Z,54.47
2023-05-19T01:39:30.164Z,54.51
2023-05-19T01:42:01.385Z,54.67
2023-05-19T01:44:32.485Z,54.34
2023-05-19T01:47:06.440Z,54.34
2023-05-19T01:49:37.421Z,54.46
2023-05-19T01:52:07.820Z,54.64
2023-05-19T01:54:38.510Z,54.65
2023-05-19T01:57:25.961Z,54.44
2023-05-19T02:00:21.303Z,54.65
2023-05-19T02:03:18.634Z,54.79
2023-05-19T02:06:11.433Z,54.48
2023-05-19T02:08:48.389Z,54.70
2023-05-19T02:11:40.252Z,54.84
2023-05-19T02:14:35.267Z,55.08
2023-05-19T02:17:08.492Z,55.06
2023-05-19T02:19:42.574Z,54.78
2023-05-19T02:22:12.971Z,54.41
2023-05-19T02:24:43.967Z,54.64
2023-05-19T02:27:14.285Z,54.64
2023-05-19T02:29:46.351Z,54.57
2023-05-19T02:32:17.806Z,54.94
2023-05-19T02:34:50.044Z,54.96
2023-05-19T02:37:20.635Z,55.19
2023-05-19T02:39:51.121Z,55.28
2023-05-19T02:42:21.412Z,55.03
2023-05-19T02:44:52.155Z,54.92
2023-05-19T02:47:22.513Z,55.10
2023-05-19T02:49:53.095Z,54.58
2023-05-19T02:52:24.646Z,54.63
2023-05-19T02:54:55.753Z,54.47
2023-05-19T02:57:26.572Z,54.62
2023-05-19T02:59:57.064Z,54.42
2023-05-19T03:02:27.480Z,54.32
2023-05-19T03:04:58.156Z,54.74
2023-05-19T03:07:29.252Z,54.41
2023-05-19T03:09:59.752Z,54.57
2023-05-19T03:12:30.119Z,54.29
2023-05-19T03:15:00.632Z,54.54
2023-05-19T03:17:36.076Z,54.25
2023-05-19T03:20:07.949Z,54.23
2023-05-19T03:22:38.310Z,54.14
2023-05-19T03:25:09.222Z,54.27
2023-05-19T03:27:39.607Z,54.15
2023-05-19T03:30:11.490Z,54.26
2023-05-19T03:32:54.594Z,54.17
2023-05-19T03:35:26.741Z,54.21
2023-05-19T03:37:57.242Z,54.17
2023-05-19T03:40:27.859Z,54.12
2023-05-19T03:43:05.139Z,54.04
2023-05-19T03:45:40.558Z,54.01
2023-05-19T03:48:30.670Z,54.05
2023-05-19T03:51:19.458Z,53.84
2023-05-19T03:53:52.736Z,53.91
2023-05-19T03:56:25.560Z,53.73
2023-05-19T03:58:57.227Z,53.76
2023-05-19T04:01:27.619Z,53.66
2023-05-19T04:03:57.957Z,53.60
2023-05-19T04:06:28.607Z,53.51
2023-05-19T04:08:59.146Z,53.36
2023-05-19T04:11:29.561Z,53.63
2023-05-19T04:14:01.154Z,53.35
2023-05-19T04:16:31.786Z,53.38
2023-05-19T04:19:02.305Z,53.57
2023-05-19T04:21:32.913Z,53.45
2023-05-19T04:24:03.230Z,53.24
2023-05-19T04:26:36.943Z,53.22
2023-05-19T04:29:07.732Z,53.29
2023-05-19T04:31:38.915Z,53.05
2023-05-19T04:34:13.018Z,52.80
2023-05-19T04:36:44.630Z,52.99
2023-05-19T04:39:14.967Z,52.73
2023-05-19T04:41:48.237Z,52.75
2023-05-19T04:44:20.736Z,52.68
2023-05-19T04:46:56.573Z,52.83
2023-05-19T04:49:26.971Z,52.88
2023-05-19T04:51:59.048Z,52.48
2023-05-19T04:54:32.507Z,52.66
2023-05-19T04:57:03.051Z,52.70
2023-05-19T04:59:35.804Z,52.79
2023-05-19T05:02:07.013Z,52.78
2023-05-19T05:04:39.818Z,52.74
2023-05-19T05:07:10.273Z,53.00
2023-05-19T05:09:41.671Z,52.65
2023-05-19T05:12:13.242Z,52.37
2023-05-19T05:14:47.690Z,52.00
2023-05-19T05:17:18.703Z,51.85
2023-05-19T05:19:49.956Z,51.88
2023-05-19T05:22:20.805Z,52.04
2023-05-19T05:24:52.079Z,51.68
2023-05-19T05:27:22.854Z,51.49
2023-05-19T05:29:53.339Z,51.57
2023-05-19T05:32:24.785Z,51.15
2023-05-19T05:34:57.069Z,51.38
2023-05-19T05:37:28.327Z,51.39
2023-05-19T05:39:58.774Z,51.33
2023-05-19T05:42:29.817Z,51.58
2023-05-19T05:45:00.159Z,51.64
2023-05-19T05:47:31.284Z,51.73
2023-05-19T05:50:02.745Z,52.01
2023-05-19T05:52:35.087Z,51.77
2023-05-19T05:55:07.438Z,51.61
2023-05-19T05:57:38.901Z,51.47
2023-05-19T06:00:12.623Z,51.23
2023-05-19T06:02:48.969Z,51.52
2023-05-19T06:05:21.013Z,51.38
2023-05-19T06:07:54.235Z,51.17
2023-05-19T06:10:28.813Z,50.87
2023-05-19T06:12:59.369Z,51.02
2023-05-19T06:15:29.935Z,50.83
2023-05-19T06:18:08.561Z,51.00
2023-05-19T06:20:38.919Z,51.22
2023-05-19T06:23:10.392Z,50.96
2023-05-19T06:25:40.810Z,50.84
2023-05-19T06:28:11.633Z,50.96
2023-05-19T06:30:42.193Z,50.65
2023-05-19T06:33:23.442Z,50.72
2023-05-19T06:35:54.038Z,50.77
2023-05-19T06:38:24.881Z,50.72
2023-05-19T06:40:55.798Z,50.63
2023-05-19T06:43:28.113Z,50.26
2023-05-19T06:46:00.354Z,50.45
2023-05-19T06:48:32.812Z,50.45
2023-05-19T06:51:03.337Z,50.28
2023-05-19T06:53:37.383Z,50.64
2023-05-19T06:56:11.558Z,50.63
2023-05-19T06:58:43.602Z,50.40
2023-05-19T07:01:14.817Z,50.43
2023-05-19T07:03:50.305Z,50.04
2023-05-19T07:06:20.639Z,50.44
2023-05-19T07:08:51.535Z,50.26
2023-05-19T07:11:22.361Z,50.38
2023-05-19T07:13:53.076Z,50.32
2023-05-19T07:16:29.099Z,50.15
2023-05-19T07:18:59.479Z,50.51
2023-05-19T07:21:30.910Z,50.44
2023-05-19T07:24:01.328Z,50.37
2023-05-19T07:26:32.284Z,50.36
2023-05-19T07:29:03.279Z,50.25
2023-05-19T07:31:33.676Z,50.42
2023-05-19T07:34:04.153Z,50.53
2023-05-19T07:36:34.456Z,50.57
2023-05-19T07:39:04.995Z,50.56
2023-05-19T07:41:36.355Z,49.84
2023-05-19T07:44:10.220Z,50.15
2023-05-19T07:46:40.919Z,50.06
2023-05-19T07:49:11.403Z,50.04
2023-05-19T07:51:41.738Z,49.98
2023-05-19T07:54:12.126Z,49.84
2023-05-19T07:56:42.302Z,50.10
2023-05-19T07:59:12.713Z,49.82
2023-05-19T08:01:43.229Z,49.94
2023-05-19T08:04:15.010Z,50.03
2023-05-19T08:06:46.753Z,49.90
2023-05-19T08:09:17.327Z,50.01
2023-05-19T08:11:49.290Z,49.88
2023-05-19T08:14:19.833Z,49.86
2023-05-19T08:16:50.524Z,50.01
2023-05-19T08:19:21.021Z,49.84
2023-05-19T08:21:52.084Z,49.77
2023-05-19T08:24:22.334Z,49.70
2023-05-19T08:26:52.593Z,49.89
2023-05-19T08:29:23.002Z,49.84
2023-05-19T08:31:55.387Z,50.00
2023-05-19T08:34:25.862Z,50.08
2023-05-19T08:36:56.150Z,50.13
2023-05-19T08:39:29.969Z,50.18
2023-05-19T08:42:00.426Z,50.34
2023-05-19T08:44:30.772Z,50.25
2023-05-19T08:47:05.853Z,50.31
2023-05-19T08:49:43.877Z,50.15
2023-05-19T08:52:23.631Z,50.28
2023-05-19T08:55:03.284Z,50.61
2023-05-19T08:57:35.213Z,50.39
2023-05-19T09:00:11.479Z,50.32
2023-05-19T09:02:50.648Z,50.53
2023-05-19T09:05:31.128Z,50.31
2023-05-19T09:08:05.070Z,50.50
2023-05-19T09:10:35.578Z,50.55
2023-05-19T09:13:07.850Z,50.59
2023-05-19T09:15:41.721Z,50.40
2023-05-19T09:18:14.906Z,50.55
2023-05-19T09:20:47.395Z,50.46
2023-05-19T09:23:19.765Z,50.56
2023-05-19T09:25:52.807Z,50.35
2023-05-19T09:28:27.852Z,50.61
2023-05-19T09:31:09.071Z,50.66
2023-05-19T09:33:44.382Z,50.51
2023-05-19T09:36:16.854Z,50.67
2023-05-19T09:38:48.384Z,50.64
2023-05-19T09:41:18.579Z,50.59
2023-05-19T09:43:58.747Z,50.50
2023-05-19T09:46:30.762Z,50.43
2023-05-19T09:49:01.428Z,50.51
2023-05-19T09:51:32.031Z,50.42
2023-05-19T09:54:02.422Z,50.11
2023-05-19T09:56:39.500Z,50.07
2023-05-19T09:59:09.948Z,50.35
2023-05-19T10:01:43.547Z,50.57
2023-05-19T10:04:15.908Z,50.21
2023-05-19T10:06:46.967Z,50.45
2023-05-19T10:09:18.790Z,50.36
2023-05-19T10:11:49.476Z,50.45
2023-05-19T10:14:22.046Z,50.25
2023-05-19T10:16:55.286Z,50.45
2023-05-19T10:19:32.284Z,50.22
2023-05-19T10:22:03.482Z,50.35
2023-05-19T10:24:34.093Z,50.41
2023-05-19T10:27:08.585Z,50.42
2023-05-19T10:29:44.122Z,50.34
2023-05-19T10:32:19.392Z,50.57
2023-05-19T10:35:13.598Z,50.50
2023-05-19T10:38:07.013Z,50.48
2023-05-19T10:40:42.252Z,50.21
2023-05-19T10:43:24.873Z,50.28
2023-05-19T10:45:57.615Z,50.39
2023-05-19T10:48:28.072Z,50.34
2023-05-19T10:50:59.837Z,50.37
2023-05-19T10:53:39.617Z,50.28
2023-05-19T10:56:12.942Z,50.34
2023-05-19T10:58:49.165Z,50.17
2023-05-19T11:01:24.651Z,50.37
2023-05-19T11:03:59.916Z,50.19
2023-05-19T11:06:42.768Z,50.17
2023-05-19T11:09:16.895Z,50.17
2023-05-19T11:11:58.244Z,50.02
2023-05-19T11:14:33.085Z,50.04
2023-05-19T11:17:03.661Z,50.10
2023-05-19T11:19:35.888Z,49.99
2023-05-19T11:22:13.508Z,50.02
2023-05-19T11:24:49.349Z,49.92
2023-05-19T11:27:33.562Z,49.81
2023-05-19T11:30:11.845Z,49.94
2023-05-19T11:32:45.042Z,49.79
2023-05-19T11:35:16.984Z,49.99
2023-05-19T11:37:50.098Z,49.71
2023-05-19T11:40:20.967Z,49.91
2023-05-19T11:42:51.423Z,49.98
2023-05-19T11:45:28.713Z,49.88
2023-05-19T11:48:03.136Z,49.84
2023-05-19T11:50:35.193Z,49.91
2023-05-19T11:53:05.716Z,49.78
2023-05-19T11:55:36.317Z,50.00
2023-05-19T11:58:07.133Z,50.07
2023-05-19T12:00:42.634Z,49.87
2023-05-19T12:03:13.343Z,49.80
2023-05-19T12:05:49.016Z,49.87
2023-05-19T12:08:23.960Z,49.76
2023-05-19T12:10:55.439Z,49.81
2023-05-19T12:13:26.017Z,49.65
2023-05-19T12:15:56.344Z,49.56
2023-05-19T12:18:30.553Z,49.59
2023-05-19T12:21:01.611Z,49.62
2023-05-19T12:23:33.241Z,49.44
2023-05-19T12:26:03.581Z,49.27
2023-05-19T12:28:34.163Z,49.68
2023-05-19T12:31:05.597Z,49.57
2023-05-19T12:33:37.107Z,50.74
2023-05-19T12:36:08.726Z,51.32
2023-05-19T12:38:41.985Z,52.18
2023-05-19T12:41:15.223Z,53.39
2023-05-19T12:43:45.799Z,54.01
2023-05-19T12:46:19.126Z,54.58
2023-05-19T12:48:50.349Z,55.03
2023-05-19T12:51:24.351Z,55.45
2023-05-19T12:53:54.771Z,55.19
2023-05-19T12:56:29.510Z,55.49
2023-05-19T12:58:59.981Z,55.57
2023-05-19T13:01:33.759Z,55.53
2023-05-19T13:04:06.260Z,55.79
2023-05-19T13:06:36.873Z,55.90
2023-05-19T13:09:07.344Z,56.11
2023-05-19T13:21:49.919Z,57.28
2023-05-19T13:24:20.237Z,57.41
2023-05-19T13:26:51.944Z,57.54
2023-05-19T13:29:23.666Z,57.75
2023-05-19T13:31:54.163Z,57.50
2023-05-19T13:34:24.362Z,57.60
2023-05-19T13:36:54.908Z,57.43
2023-05-19T13:39:25.246Z,57.41
2023-05-19T13:41:56.753Z,57.41
2023-05-19T13:44:28.164Z,57.36
2023-05-19T13:46:59.743Z,57.35
2023-05-19T13:49:30.025Z,57.24
2023-05-19T13:52:00.875Z,57.44
2023-05-19T13:54:31.203Z,57.25
2023-05-19T13:57:01.492Z,57.45
2023-05-19T13:59:32.159Z,57.67
2023-05-19T14:02:02.896Z,58.04
2023-05-19T14:04:33.642Z,58.31
2023-05-19T14:07:03.990Z,58.48
2023-05-19T14:09:34.628Z,58.88
2023-05-19T14:12:04.979Z,59.25
2023-05-19T14:14:36.636Z,59.38
2023-05-19T14:17:07.689Z,59.78
2023-05-19T14:19:38.178Z,59.45
2023-05-19T14:22:08.834Z,59.68
2023-05-19T14:24:39.760Z,59.68
2023-05-19T14:27:11.612Z,60.05
2023-05-19T14:29:42.087Z,60.12
2023-05-19T14:32:12.655Z,59.93
2023-05-19T14:34:43.198Z,60.30
2023-05-19T14:37:14.043Z,60.69
2023-05-19T14:39:44.409Z,60.88
2023-05-19T14:42:15.204Z,60.92
2023-05-19T14:44:45.772Z,61.19
2023-05-19T14:47:16.299Z,61.37
2023-05-19T14:49:46.865Z,60.91
2023-05-19T14:52:17.862Z,61.25
2023-05-19T14:54:48.064Z,61.25
2023-05-19T14:57:18.502Z,61.19
2023-05-19T14:59:50.522Z,61.18
2023-05-19T15:02:21.018Z,61.15
2023-05-19T15:04:51.324Z,61.00
2023-05-19T15:07:21.975Z,61.42
2023-05-19T15:09:52.315Z,61.73
2023-05-19T15:12:22.893Z,61.77
2023-05-19T15:14:53.256Z,62.08
2023-05-19T15:17:23.865Z,62.25
2023-05-19T15:19:55.462Z,62.42
2023-05-19T15:22:25.991Z,62.43
2023-05-19T15:24:56.774Z,62.64
2023-05-19T15:27:31.313Z,62.77
2023-05-19T15:30:01.805Z,62.77
2023-05-19T15:32:32.407Z,63.11
2023-05-19T15:35:02.709Z,62.72
2023-05-19T15:37:33.132Z,62.38
2023-05-19T15:40:03.908Z,62.10
2023-05-19T15:42:34.552Z,62.11
2023-05-19T15:45:05.089Z,62.17
2023-05-19T15:47:36.439Z,62.14
2023-05-19T15:50:07.227Z,62.07
2023-05-19T15:52:37.531Z,61.99
2023-05-19T15:55:08.462Z,62.00
2023-05-19T15:57:38.794Z,61.84
2023-05-19T16:00:09.957Z,61.86
2023-05-19T16:02:39.968Z,61.76
2023-05-19T16:05:10.716Z,61.09
2023-05-19T16:07:41.018Z,61.27
2023-05-19T16:10:11.941Z,60.55
2023-05-19T16:12:42.166Z,60.38
2023-05-19T16:15:13.061Z,60.00
2023-05-19T16:17:43.594Z,59.75
2023-05-19T16:20:14.597Z,59.43
2023-05-19T16:22:44.981Z,59.30
2023-05-19T16:25:17.195Z,59.39
2023-05-19T16:27:47.873Z,59.46
2023-05-19T16:30:18.984Z,59.66
2023-05-19T16:32:50.523Z,59.75
2023-05-19T16:35:21.016Z,59.61
2023-05-19T16:37:51.727Z,59.47
2023-05-19T16:40:22.529Z,59.36
2023-05-19T16:42:56.134Z,59.79
2023-05-19T16:45:28.665Z,59.64
2023-05-19T16:47:59.680Z,59.31
2023-05-19T16:50:29.917Z,59.47
2023-05-19T16:53:00.155Z,59.12
2023-05-19T16:55:30.774Z,59.45
2023-05-19T16:58:01.677Z,59.40
2023-05-19T17:00:34.347Z,59.53
2023-05-19T17:03:05.106Z,59.45
2023-05-19T17:05:35.701Z,59.56
2023-05-19T17:08:06.012Z,58.91
2023-05-19T17:10:36.485Z,58.29
2023-05-19T17:13:06.864Z,58.28
2023-05-19T17:15:37.555Z,57.34
2023-05-19T17:18:08.144Z,57.26
2023-05-19T17:20:38.489Z,56.81
2023-05-19T17:23:08.838Z,56.00
2023-05-19T17:25:39.096Z,55.87
2023-05-19T17:28:09.454Z,55.50
2023-05-19T17:30:43.686Z,55.50
2023-05-19T17:33:15.377Z,56.29
2023-05-19T17:35:45.816Z,55.14
2023-05-19T17:38:16.385Z,55.56
2023-05-19T17:40:47.193Z,54.68
2023-05-19T17:43:17.784Z,55.00
2023-05-19T17:45:48.097Z,54.74
2023-05-19T17:48:18.626Z,54.55
2023-05-19T17:50:52.454Z,54.28
2023-05-19T17:53:23.809Z,53.86
2023-05-19T17:56:04.674Z,53.13
2023-05-19T17:58:35.754Z,52.89
2023-05-19T18:01:06.546Z,53.21
2023-05-19T18:03:37.453Z,53.23
2023-05-19T18:06:09.469Z,52.66
2023-05-19T18:08:40.989Z,52.04
2023-05-19T18:11:15.851Z,52.22
2023-05-19T18:13:46.460Z,51.95
2023-05-19T18:16:16.904Z,51.87
2023-05-19T18:18:52.472Z,51.71
2023-05-19T18:21:22.930Z,51.35
2023-05-19T18:23:53.292Z,51.11
2023-05-19T18:26:24.046Z,51.03
2023-05-19T18:28:54.284Z,50.99
2023-05-19T18:31:24.615Z,50.71
2023-05-19T18:33:54.881Z,50.79
2023-05-19T18:36:26.232Z,50.85
2023-05-19T18:38:57.570Z,50.60
2023-05-19T18:41:28.568Z,50.66
2023-05-19T18:43:59.011Z,50.59
2023-05-19T18:46:29.704Z,50.73
2023-05-19T18:49:00.497Z,50.41
2023-05-19T18:51:30.927Z,50.08
2023-05-19T18:54:02.683Z,50.02
2023-05-19T18:56:36.160Z,49.86
2023-05-19T18:59:06.418Z,49.98
2023-05-19T19:01:37.028Z,50.20
2023-05-19T19:04:07.957Z,50.11
2023-05-19T19:06:38.700Z,49.94
2023-05-19T19:09:09.132Z,50.03
2023-05-19T19:11:39.675Z,50.02
2023-05-19T19:14:10.362Z,49.86
2023-05-19T19:16:40.963Z,49.86
2023-05-19T19:19:13.172Z,49.80
2023-05-19T19:21:44.340Z,49.67
2023-05-19T19:24:15.937Z,49.66
2023-05-19T19:26:47.562Z,49.85
2023-05-19T19:29:19.151Z,49.54
2023-05-19T19:31:50.077Z,49.50
2023-05-19T19:34:22.360Z,49.25
2023-05-19T19:36:53.079Z,49.67
2023-05-19T19:39:24.678Z,49.39
2023-05-19T19:41:57.431Z,49.28
2023-05-19T19:44:28.105Z,49.47
2023-05-19T19:46:58.618Z,49.55
2023-05-19T19:49:29.415Z,49.47
2023-05-19T19:51:59.805Z,49.30
2023-05-19T19:54:30.158Z,49.26
2023-05-19T19:57:00.461Z,49.37
2023-05-19T19:59:31.144Z,49.07
2023-05-19T20:02:01.720Z,49.09
2023-05-19T20:04:32.012Z,48.71
2023-05-19T20:07:03.165Z,48.95
2023-05-19T20:09:33.135Z,48.98
2023-05-19T20:12:03.225Z,49.14
2023-05-19T20:14:33.864Z,49.21
2023-05-19T20:17:04.472Z,48.71
2023-05-19T20:19:34.899Z,48.82
2023-05-19T20:22:05.258Z,48.86
2023-05-19T20:24:35.611Z,48.92
2023-05-19T20:27:05.935Z,48.95
2023-05-19T20:29:36.499Z,49.07
2023-05-19T20:32:06.948Z,49.12
2023-05-19T20:34:37.362Z,49.18
2023-05-19T20:37:08.342Z,49.30
2023-05-19T20:39:38.810Z,49.33
2023-05-19T20:42:10.405Z,49.23
2023-05-19T20:44:40.812Z,49.13
2023-05-19T20:47:11.367Z,49.30
2023-05-19T20:49:41.644Z,49.27
2023-05-19T20:52:12.716Z,49.16
2023-05-19T20:54:43.491Z,49.16
2023-05-19T20:57:17.953Z,49.23
2023-05-19T20:59:48.412Z,49.43
2023-05-19T21:02:18.723Z,49.13
2023-05-19T21:04:49.059Z,49.21
2023-05-19T21:07:19.556Z,49.01
2023-05-19T21:09:54.360Z,49.20
2023-05-19T21:12:30.915Z,49.21
2023-05-19T21:15:01.126Z,49.26
2023-05-19T21:17:31.621Z,49.00
2023-05-19T21:20:04.381Z,49.07
2023-05-19T21:22:34.906Z,48.93
2023-05-19T21:25:05.292Z,49.07
2023-05-19T21:27:37.889Z,49.08
2023-05-19T21:30:09.237Z,48.95
2023-05-19T21:32:40.314Z,49.05
2023-05-19T21:35:11.064Z,48.89
2023-05-19T21:37:41.581Z,48.88
2023-05-19T21:40:12.724Z,49.14
2023-05-19T21:42:42.792Z,49.20
2023-05-19T21:45:13.479Z,49.31
2023-05-19T21:47:43.825Z,49.11
2023-05-19T21:50:17.985Z,49.18
2023-05-19T21:52:48.361Z,49.33
2023-05-19T21:55:19.095Z,49.15
2023-05-19T21:57:50.610Z,49.18
2023-05-19T22:00:21.054Z,49.07
2023-05-19T22:02:51.630Z,49.07
2023-05-19T22:05:21.970Z,49.05
2023-05-19T22:07:52.746Z,49.19
2023-05-19T22:10:24.666Z,49.15
2023-05-19T22:12:55.242Z,49.30
2023-05-19T22:15:25.716Z,48.86
2023-05-19T22:17:56.173Z,49.25
2023-05-19T22:20:28.122Z,49.09
2023-05-19T22:23:00.092Z,48.97
2023-05-19T22:25:30.901Z,49.24
2023-05-19T22:28:03.545Z,49.61
2023-05-19T22:30:38.605Z,49.38
2023-05-19T22:33:11.972Z,49.50
2023-05-19T22:35:42.751Z,49.54
2023-05-19T22:38:14.206Z,49.53
2023-05-19T22:40:46.066Z,49.74
2023-05-19T22:43:21.124Z,49.76
2023-05-19T22:45:52.686Z,49.52
2023-05-19T22:48:23.016Z,49.71
2023-05-19T22:50:53.947Z,49.76
2023-05-19T22:53:24.415Z,49.88
2023-05-19T22:55:55.137Z,50.22
2023-05-19T22:58:25.250Z,50.02
2023-05-19T23:00:55.718Z,49.94
2023-05-19T23:03:26.292Z,50.19
2023-05-19T23:05:56.735Z,49.99
2023-05-19T23:08:27.087Z,50.21
2023-05-19T23:11:02.960Z,50.45
2023-05-19T23:13:34.259Z,50.37
2023-05-19T23:16:04.937Z,50.23
2023-05-19T23:18:35.267Z,50.42
2023-05-19T23:21:05.473Z,50.17
2023-05-19T23:23:38.343Z,50.08
2023-05-19T23:26:08.753Z,50.60
2023-05-19T23:28:39.304Z,50.49
2023-05-19T23:31:09.748Z,50.45
2023-05-19T23:33:40.696Z,50.35
2023-05-19T23:36:13.041Z,50.47
2023-05-19T23:38:43.575Z,50.63
2023-05-19T23:41:13.965Z,50.59
2023-05-19T23:43:44.442Z,50.61
2023-05-19T23:46:14.917Z,50.93
2023-05-19T23:48:45.537Z,50.58
2023-05-19T23:51:16.440Z,51.13
2023-05-19T23:53:46.715Z,51.27
2023-05-19T23:56:17.138Z,51.62
2023-05-19T23:58:47.687Z,51.27
